sensor_id;sensor_type;location;lat;lon;timestamp;P1;durP1;ratioP1;P2;durP2;ratioP2
25950;SDS011;13748;52.240;6.002;2023-02-03T00:01:28;26.13;;;11.13;;
25950;SDS011;13748;52.240;6.002;2023-02-03T00:03:55;20.33;;;10.17;;
25950;SDS011;13748;52.240;6.002;2023-02-03T00:06:22;28.67;;;10.40;;
25950;SDS011;13748;52.240;6.002;2023-02-03T00:08:50;23.57;;;10.53;;
25950;SDS011;13748;52.240;6.002;2023-02-03T00:11:19;23.93;;;10.57;;
25950;SDS011;13748;52.240;6.002;2023-02-03T00:13:46;22.20;;;10.07;;
25950;SDS011;13748;52.240;6.002;2023-02-03T00:16:12;21.03;;;10.47;;
25950;SDS011;13748;52.240;6.002;2023-02-03T00:18:39;22.43;;;10.13;;
25950;SDS011;13748;52.240;6.002;2023-02-03T00:21:06;20.50;;;10.87;;
25950;SDS011;13748;52.240;6.002;2023-02-03T00:23:33;22.07;;;10.07;;
25950;SDS011;13748;52.240;6.002;2023-02-03T00:26:09;21.47;;;10.30;;
25950;SDS011;13748;52.240;6.002;2023-02-03T00:28:37;16.37;;;9.10;;
25950;SDS011;13748;52.240;6.002;2023-02-03T00:31:04;28.83;;;10.57;;
25950;SDS011;13748;52.240;6.002;2023-02-03T00:33:31;19.00;;;9.43;;
25950;SDS011;13748;52.240;6.002;2023-02-03T00:36:03;22.53;;;9.57;;
25950;SDS011;13748;52.240;6.002;2023-02-03T00:38:31;23.73;;;8.50;;
25950;SDS011;13748;52.240;6.002;2023-02-03T00:40:57;21.00;;;10.03;;
25950;SDS011;13748;52.240;6.002;2023-02-03T00:43:24;25.03;;;8.63;;
25950;SDS011;13748;52.240;6.002;2023-02-03T00:45:51;20.27;;;8.20;;
25950;SDS011;13748;52.240;6.002;2023-02-03T00:48:17;16.50;;;7.47;;
25950;SDS011;13748;52.240;6.002;2023-02-03T00:50:45;16.53;;;8.57;;
25950;SDS011;13748;52.240;6.002;2023-02-03T00:53:12;16.20;;;7.07;;
25950;SDS011;13748;52.240;6.002;2023-02-03T00:55:41;19.43;;;8.37;;
25950;SDS011;13748;52.240;6.002;2023-02-03T00:58:08;19.40;;;7.30;;
25950;SDS011;13748;52.240;6.002;2023-02-03T01:00:35;15.67;;;6.77;;
25950;SDS011;13748;52.240;6.002;2023-02-03T01:03:01;16.00;;;7.20;;
25950;SDS011;13748;52.240;6.002;2023-02-03T01:05:28;17.50;;;8.07;;
25950;SDS011;13748;52.240;6.002;2023-02-03T01:07:55;20.43;;;6.57;;
25950;SDS011;13748;52.240;6.002;2023-02-03T01:10:22;19.07;;;6.23;;
25950;SDS011;13748;52.240;6.002;2023-02-03T01:12:49;15.20;;;6.03;;
25950;SDS011;13748;52.240;6.002;2023-02-03T01:15:15;22.37;;;6.20;;
25950;SDS011;13748;52.240;6.002;2023-02-03T01:17:42;18.47;;;5.67;;
25950;SDS011;13748;52.240;6.002;2023-02-03T01:20:09;16.40;;;5.83;;
25950;SDS011;13748;52.240;6.002;2023-02-03T01:22:41;13.50;;;5.40;;
25950;SDS011;13748;52.240;6.002;2023-02-03T01:25:08;15.13;;;5.73;;
25950;SDS011;13748;52.240;6.002;2023-02-03T01:27:35;14.17;;;5.00;;
25950;SDS011;13748;52.240;6.002;2023-02-03T01:30:02;16.40;;;5.60;;
25950;SDS011;13748;52.240;6.002;2023-02-03T01:32:29;14.77;;;5.20;;
25950;SDS011;13748;52.240;6.002;2023-02-03T01:34:55;14.67;;;4.90;;
25950;SDS011;13748;52.240;6.002;2023-02-03T01:37:22;14.03;;;5.20;;
25950;SDS011;13748;52.240;6.002;2023-02-03T01:39:49;14.00;;;4.80;;
25950;SDS011;13748;52.240;6.002;2023-02-03T01:42:15;14.43;;;4.57;;
25950;SDS011;13748;52.240;6.002;2023-02-03T01:44:46;16.33;;;5.17;;
25950;SDS011;13748;52.240;6.002;2023-02-03T01:47:24;14.40;;;5.20;;
25950;SDS011;13748;52.240;6.002;2023-02-03T01:52:46;11.07;;;4.83;;
25950;SDS011;13748;52.240;6.002;2023-02-03T01:55:40;14.50;;;5.23;;
25950;SDS011;13748;52.240;6.002;2023-02-03T01:58:11;25.57;;;5.30;;
25950;SDS011;13748;52.240;6.002;2023-02-03T02:00:51;12.57;;;4.60;;
25950;SDS011;13748;52.240;6.002;2023-02-03T02:03:20;15.93;;;4.27;;
25950;SDS011;13748;52.240;6.002;2023-02-03T02:05:56;17.10;;;4.90;;
25950;SDS011;13748;52.240;6.002;2023-02-03T02:08:31;12.33;;;4.77;;
25950;SDS011;13748;52.240;6.002;2023-02-03T02:10:59;14.27;;;3.97;;
25950;SDS011;13748;52.240;6.002;2023-02-03T02:13:26;18.87;;;4.53;;
25950;SDS011;13748;52.240;6.002;2023-02-03T02:16:05;12.70;;;3.90;;
25950;SDS011;13748;52.240;6.002;2023-02-03T02:36:25;17.47;;;3.57;;
25950;SDS011;13748;52.240;6.002;2023-02-03T02:39:36;11.17;;;3.30;;
25950;SDS011;13748;52.240;6.002;2023-02-03T02:42:22;10.53;;;3.20;;
25950;SDS011;13748;52.240;6.002;2023-02-03T02:45:23;15.93;;;3.23;;
25950;SDS011;13748;52.240;6.002;2023-02-03T02:47:49;7.60;;;3.10;;
25950;SDS011;13748;52.240;6.002;2023-02-03T02:50:19;10.40;;;3.23;;
25950;SDS011;13748;52.240;6.002;2023-02-03T02:52:50;8.27;;;3.17;;
25950;SDS011;13748;52.240;6.002;2023-02-03T02:55:20;13.43;;;3.00;;
25950;SDS011;13748;52.240;6.002;2023-02-03T02:57:55;9.57;;;3.13;;
25950;SDS011;13748;52.240;6.002;2023-02-03T03:00:29;10.63;;;2.97;;
25950;SDS011;13748;52.240;6.002;2023-02-03T03:02:56;11.93;;;3.27;;
25950;SDS011;13748;52.240;6.002;2023-02-03T03:05:31;11.53;;;3.27;;
25950;SDS011;13748;52.240;6.002;2023-02-03T03:07:58;9.60;;;3.93;;
25950;SDS011;13748;52.240;6.002;2023-02-03T03:10:30;14.20;;;2.87;;
25950;SDS011;13748;52.240;6.002;2023-02-03T03:13:00;9.27;;;2.73;;
25950;SDS011;13748;52.240;6.002;2023-02-03T03:15:32;8.83;;;2.60;;
25950;SDS011;13748;52.240;6.002;2023-02-03T03:18:09;9.47;;;2.53;;
25950;SDS011;13748;52.240;6.002;2023-02-03T03:20:41;11.13;;;3.37;;
25950;SDS011;13748;52.240;6.002;2023-02-03T03:23:16;9.90;;;3.17;;
25950;SDS011;13748;52.240;6.002;2023-02-03T03:25:59;11.67;;;2.90;;
25950;SDS011;13748;52.240;6.002;2023-02-03T03:28:34;12.43;;;2.40;;
25950;SDS011;13748;52.240;6.002;2023-02-03T03:31:09;8.40;;;2.40;;
25950;SDS011;13748;52.240;6.002;2023-02-03T03:33:36;9.33;;;2.53;;
25950;SDS011;13748;52.240;6.002;2023-02-03T03:36:05;10.80;;;2.97;;
25950;SDS011;13748;52.240;6.002;2023-02-03T03:38:45;6.43;;;1.90;;
25950;SDS011;13748;52.240;6.002;2023-02-03T03:41:42;8.23;;;2.80;;
25950;SDS011;13748;52.240;6.002;2023-02-03T03:44:12;8.43;;;2.80;;
25950;SDS011;13748;52.240;6.002;2023-02-03T03:46:45;9.10;;;2.87;;
25950;SDS011;13748;52.240;6.002;2023-02-03T03:49:16;8.07;;;2.17;;
25950;SDS011;13748;52.240;6.002;2023-02-03T03:51:49;8.80;;;2.20;;
25950;SDS011;13748;52.240;6.002;2023-02-03T03:54:21;7.80;;;2.37;;
25950;SDS011;13748;52.240;6.002;2023-02-03T03:56:57;7.33;;;1.90;;
25950;SDS011;13748;52.240;6.002;2023-02-03T03:59:26;6.87;;;1.80;;
25950;SDS011;13748;52.240;6.002;2023-02-03T04:01:58;7.10;;;1.80;;
25950;SDS011;13748;52.240;6.002;2023-02-03T04:04:30;10.47;;;3.17;;
25950;SDS011;13748;52.240;6.002;2023-02-03T04:06:59;9.50;;;2.00;;
25950;SDS011;13748;52.240;6.002;2023-02-03T04:09:25;6.33;;;2.37;;
25950;SDS011;13748;52.240;6.002;2023-02-03T04:11:52;10.97;;;2.57;;
25950;SDS011;13748;52.240;6.002;2023-02-03T04:14:37;7.83;;;1.77;;
25950;SDS011;13748;52.240;6.002;2023-02-03T04:17:04;9.83;;;2.00;;
25950;SDS011;13748;52.240;6.002;2023-02-03T04:19:30;10.90;;;2.10;;
25950;SDS011;13748;52.240;6.002;2023-02-03T04:21:57;11.03;;;2.37;;
25950;SDS011;13748;52.240;6.002;2023-02-03T04:24:24;5.10;;;2.30;;
25950;SDS011;13748;52.240;6.002;2023-02-03T04:26:50;10.13;;;2.00;;
25950;SDS011;13748;52.240;6.002;2023-02-03T04:29:17;6.77;;;1.97;;
25950;SDS011;13748;52.240;6.002;2023-02-03T04:31:44;4.93;;;2.30;;
25950;SDS011;13748;52.240;6.002;2023-02-03T04:34:10;8.13;;;2.13;;
25950;SDS011;13748;52.240;6.002;2023-02-03T04:36:37;8.33;;;2.20;;
25950;SDS011;13748;52.240;6.002;2023-02-03T04:39:04;4.90;;;1.70;;
25950;SDS011;13748;52.240;6.002;2023-02-03T04:41:30;9.70;;;2.20;;
25950;SDS011;13748;52.240;6.002;2023-02-03T04:43:57;11.20;;;2.50;;
25950;SDS011;13748;52.240;6.002;2023-02-03T04:46:24;6.80;;;2.20;;
25950;SDS011;13748;52.240;6.002;2023-02-03T04:48:50;7.10;;;2.20;;
25950;SDS011;13748;52.240;6.002;2023-02-03T04:51:17;7.37;;;2.50;;
25950;SDS011;13748;52.240;6.002;2023-02-03T04:53:44;7.53;;;2.20;;
25950;SDS011;13748;52.240;6.002;2023-02-03T04:56:10;13.43;;;2.10;;
25950;SDS011;13748;52.240;6.002;2023-02-03T04:58:37;10.60;;;2.17;;
25950;SDS011;13748;52.240;6.002;2023-02-03T05:01:05;7.00;;;2.27;;
25950;SDS011;13748;52.240;6.002;2023-02-03T05:03:33;8.10;;;1.80;;
25950;SDS011;13748;52.240;6.002;2023-02-03T05:06:00;7.10;;;2.13;;
25950;SDS011;13748;52.240;6.002;2023-02-03T05:08:28;6.70;;;2.13;;
25950;SDS011;13748;52.240;6.002;2023-02-03T05:10:56;12.33;;;2.10;;
25950;SDS011;13748;52.240;6.002;2023-02-03T05:13:24;7.50;;;2.33;;
25950;SDS011;13748;52.240;6.002;2023-02-03T05:15:51;8.30;;;2.57;;
25950;SDS011;13748;52.240;6.002;2023-02-03T05:18:18;12.10;;;2.53;;
25950;SDS011;13748;52.240;6.002;2023-02-03T05:20:44;6.83;;;2.80;;
25950;SDS011;13748;52.240;6.002;2023-02-03T05:23:11;5.50;;;2.10;;
25950;SDS011;13748;52.240;6.002;2023-02-03T05:25:38;6.37;;;2.00;;
25950;SDS011;13748;52.240;6.002;2023-02-03T05:28:04;7.30;;;2.10;;
25950;SDS011;13748;52.240;6.002;2023-02-03T05:30:31;11.33;;;3.37;;
25950;SDS011;13748;52.240;6.002;2023-02-03T05:32:58;11.67;;;3.17;;
25950;SDS011;13748;52.240;6.002;2023-02-03T05:35:24;10.03;;;2.30;;
25950;SDS011;13748;52.240;6.002;2023-02-03T05:37:51;6.77;;;2.50;;
25950;SDS011;13748;52.240;6.002;2023-02-03T05:40:18;9.70;;;2.40;;
25950;SDS011;13748;52.240;6.002;2023-02-03T05:43:03;12.67;;;2.73;;
25950;SDS011;13748;52.240;6.002;2023-02-03T05:45:30;6.23;;;2.00;;
25950;SDS011;13748;52.240;6.002;2023-02-03T05:47:57;7.23;;;2.23;;
25950;SDS011;13748;52.240;6.002;2023-02-03T05:50:23;7.40;;;2.60;;
25950;SDS011;13748;52.240;6.002;2023-02-03T05:52:52;8.97;;;2.63;;
25950;SDS011;13748;52.240;6.002;2023-02-03T05:55:19;11.20;;;3.33;;
25950;SDS011;13748;52.240;6.002;2023-02-03T05:57:45;11.43;;;2.77;;
25950;SDS011;13748;52.240;6.002;2023-02-03T06:00:12;8.13;;;2.73;;
25950;SDS011;13748;52.240;6.002;2023-02-03T06:02:40;11.80;;;2.50;;
25950;SDS011;13748;52.240;6.002;2023-02-03T06:05:06;12.03;;;2.37;;
25950;SDS011;13748;52.240;6.002;2023-02-03T06:07:34;3.63;;;1.87;;
25950;SDS011;13748;52.240;6.002;2023-02-03T06:10:01;11.13;;;3.30;;
25950;SDS011;13748;52.240;6.002;2023-02-03T06:12:27;6.90;;;2.20;;
25950;SDS011;13748;52.240;6.002;2023-02-03T06:14:54;10.00;;;2.30;;
25950;SDS011;13748;52.240;6.002;2023-02-03T06:17:21;8.97;;;4.00;;
25950;SDS011;13748;52.240;6.002;2023-02-03T06:19:47;10.83;;;3.00;;
25950;SDS011;13748;52.240;6.002;2023-02-03T06:22:14;13.23;;;3.20;;
25950;SDS011;13748;52.240;6.002;2023-02-03T06:24:41;7.77;;;2.80;;
25950;SDS011;13748;52.240;6.002;2023-02-03T06:27:09;10.03;;;2.87;;
25950;SDS011;13748;52.240;6.002;2023-02-03T06:29:36;9.53;;;2.93;;
25950;SDS011;13748;52.240;6.002;2023-02-03T06:32:03;14.17;;;3.37;;
25950;SDS011;13748;52.240;6.002;2023-02-03T06:34:30;9.80;;;3.37;;
25950;SDS011;13748;52.240;6.002;2023-02-03T06:36:58;12.00;;;4.00;;
25950;SDS011;13748;52.240;6.002;2023-02-03T06:39:25;12.90;;;2.67;;
25950;SDS011;13748;52.240;6.002;2023-02-03T06:41:51;7.30;;;2.77;;
25950;SDS011;13748;52.240;6.002;2023-02-03T06:44:18;13.20;;;3.17;;
25950;SDS011;13748;52.240;6.002;2023-02-03T06:46:45;12.43;;;2.97;;
25950;SDS011;13748;52.240;6.002;2023-02-03T06:49:11;11.57;;;2.90;;
25950;SDS011;13748;52.240;6.002;2023-02-03T06:51:38;8.13;;;2.90;;
25950;SDS011;13748;52.240;6.002;2023-02-03T06:54:05;12.17;;;3.10;;
25950;SDS011;13748;52.240;6.002;2023-02-03T06:56:32;7.20;;;2.70;;
25950;SDS011;13748;52.240;6.002;2023-02-03T06:58:59;11.87;;;2.97;;
25950;SDS011;13748;52.240;6.002;2023-02-03T07:01:26;13.17;;;3.30;;
25950;SDS011;13748;52.240;6.002;2023-02-03T07:03:52;13.83;;;3.77;;
25950;SDS011;13748;52.240;6.002;2023-02-03T07:06:23;13.77;;;3.60;;
25950;SDS011;13748;52.240;6.002;2023-02-03T07:08:56;15.23;;;3.47;;
25950;SDS011;13748;52.240;6.002;2023-02-03T07:11:26;12.27;;;3.53;;
25950;SDS011;13748;52.240;6.002;2023-02-03T07:13:53;8.63;;;3.10;;
25950;SDS011;13748;52.240;6.002;2023-02-03T07:16:20;11.27;;;3.60;;
25950;SDS011;13748;52.240;6.002;2023-02-03T07:18:47;12.90;;;3.67;;
25950;SDS011;13748;52.240;6.002;2023-02-03T07:21:14;11.47;;;3.43;;
25950;SDS011;13748;52.240;6.002;2023-02-03T07:23:41;13.23;;;3.30;;
25950;SDS011;13748;52.240;6.002;2023-02-03T07:26:08;9.53;;;3.07;;
25950;SDS011;13748;52.240;6.002;2023-02-03T07:28:36;13.20;;;3.00;;
25950;SDS011;13748;52.240;6.002;2023-02-03T07:31:02;17.10;;;3.57;;
25950;SDS011;13748;52.240;6.002;2023-02-03T07:33:36;13.17;;;3.40;;
25950;SDS011;13748;52.240;6.002;2023-02-03T07:36:03;8.97;;;2.93;;
25950;SDS011;13748;52.240;6.002;2023-02-03T07:38:31;9.80;;;3.30;;
25950;SDS011;13748;52.240;6.002;2023-02-03T07:40:58;16.20;;;3.57;;
25950;SDS011;13748;52.240;6.002;2023-02-03T07:43:25;11.87;;;3.60;;
25950;SDS011;13748;52.240;6.002;2023-02-03T07:45:54;15.23;;;3.57;;
25950;SDS011;13748;52.240;6.002;2023-02-03T07:48:21;10.90;;;3.70;;
25950;SDS011;13748;52.240;6.002;2023-02-03T07:50:48;9.23;;;3.17;;
25950;SDS011;13748;52.240;6.002;2023-02-03T07:53:16;9.50;;;2.90;;
25950;SDS011;13748;52.240;6.002;2023-02-03T07:55:42;13.97;;;3.90;;
25950;SDS011;13748;52.240;6.002;2023-02-03T07:58:09;7.53;;;2.97;;
25950;SDS011;13748;52.240;6.002;2023-02-03T08:00:36;13.53;;;3.53;;
25950;SDS011;13748;52.240;6.002;2023-02-03T08:03:03;11.13;;;3.67;;
25950;SDS011;13748;52.240;6.002;2023-02-03T08:05:30;14.60;;;3.17;;
25950;SDS011;13748;52.240;6.002;2023-02-03T08:07:56;12.23;;;2.97;;
25950;SDS011;13748;52.240;6.002;2023-02-03T08:10:24;13.77;;;3.63;;
25950;SDS011;13748;52.240;6.002;2023-02-03T08:12:52;14.23;;;4.50;;
25950;SDS011;13748;52.240;6.002;2023-02-03T08:15:19;14.53;;;3.27;;
25950;SDS011;13748;52.240;6.002;2023-02-03T08:17:46;12.27;;;3.10;;
25950;SDS011;13748;52.240;6.002;2023-02-03T08:20:14;7.40;;;3.20;;
25950;SDS011;13748;52.240;6.002;2023-02-03T08:22:41;13.53;;;3.23;;
25950;SDS011;13748;52.240;6.002;2023-02-03T08:25:09;10.77;;;3.27;;
25950;SDS011;13748;52.240;6.002;2023-02-03T08:27:36;11.77;;;3.27;;
25950;SDS011;13748;52.240;6.002;2023-02-03T08:30:03;31.80;;;20.23;;
25950;SDS011;13748;52.240;6.002;2023-02-03T08:32:31;23.40;;;15.83;;
25950;SDS011;13748;52.240;6.002;2023-02-03T08:34:59;14.80;;;7.80;;
25950;SDS011;13748;52.240;6.002;2023-02-03T08:37:25;11.47;;;3.57;;
25950;SDS011;13748;52.240;6.002;2023-02-03T08:39:53;10.10;;;3.57;;
25950;SDS011;13748;52.240;6.002;2023-02-03T08:42:20;11.93;;;3.47;;
25950;SDS011;13748;52.240;6.002;2023-02-03T08:44:46;27.90;;;14.13;;
25950;SDS011;13748;52.240;6.002;2023-02-03T08:47:14;20.53;;;9.47;;
25950;SDS011;13748;52.240;6.002;2023-02-03T08:49:41;7.60;;;3.57;;
25950;SDS011;13748;52.240;6.002;2023-02-03T08:52:09;14.13;;;3.37;;
25950;SDS011;13748;52.240;6.002;2023-02-03T08:54:37;15.40;;;3.20;;
25950;SDS011;13748;52.240;6.002;2023-02-03T08:57:05;11.57;;;3.60;;
25950;SDS011;13748;52.240;6.002;2023-02-03T08:59:32;14.67;;;4.30;;
25950;SDS011;13748;52.240;6.002;2023-02-03T09:02:03;11.43;;;4.03;;
25950;SDS011;13748;52.240;6.002;2023-02-03T09:04:30;11.80;;;3.73;;
25950;SDS011;13748;52.240;6.002;2023-02-03T09:06:58;13.57;;;3.97;;
25950;SDS011;13748;52.240;6.002;2023-02-03T09:09:26;13.27;;;3.77;;
25950;SDS011;13748;52.240;6.002;2023-02-03T09:11:54;12.30;;;3.87;;
25950;SDS011;13748;52.240;6.002;2023-02-03T09:14:30;13.93;;;3.60;;
25950;SDS011;13748;52.240;6.002;2023-02-03T09:16:59;12.03;;;3.30;;
25950;SDS011;13748;52.240;6.002;2023-02-03T09:19:26;8.87;;;2.83;;
25950;SDS011;13748;52.240;6.002;2023-02-03T09:21:53;13.30;;;3.00;;
25950;SDS011;13748;52.240;6.002;2023-02-03T09:24:22;11.50;;;3.47;;
25950;SDS011;13748;52.240;6.002;2023-02-03T09:26:49;11.47;;;3.60;;
25950;SDS011;13748;52.240;6.002;2023-02-03T09:29:16;10.77;;;3.40;;
25950;SDS011;13748;52.240;6.002;2023-02-03T09:31:43;10.83;;;3.30;;
25950;SDS011;13748;52.240;6.002;2023-02-03T09:34:12;13.13;;;3.23;;
25950;SDS011;13748;52.240;6.002;2023-02-03T09:36:38;14.50;;;3.27;;
25950;SDS011;13748;52.240;6.002;2023-02-03T09:39:08;10.37;;;3.47;;
25950;SDS011;13748;52.240;6.002;2023-02-03T09:41:48;9.93;;;3.40;;
25950;SDS011;13748;52.240;6.002;2023-02-03T09:47:03;8.23;;;3.57;;
25950;SDS011;13748;52.240;6.002;2023-02-03T09:49:42;8.47;;;3.53;;
25950;SDS011;13748;52.240;6.002;2023-02-03T09:52:18;10.87;;;3.50;;
25950;SDS011;13748;52.240;6.002;2023-02-03T09:55:05;13.13;;;3.97;;
25950;SDS011;13748;52.240;6.002;2023-02-03T09:57:36;8.97;;;3.40;;
25950;SDS011;13748;52.240;6.002;2023-02-03T10:00:13;9.60;;;4.00;;
25950;SDS011;13748;52.240;6.002;2023-02-03T10:02:54;9.90;;;3.20;;
25950;SDS011;13748;52.240;6.002;2023-02-03T10:05:29;11.97;;;3.73;;
25950;SDS011;13748;52.240;6.002;2023-02-03T10:10:57;11.63;;;3.83;;
25950;SDS011;13748;52.240;6.002;2023-02-03T10:13:39;11.57;;;3.17;;
25950;SDS011;13748;52.240;6.002;2023-02-03T10:16:40;10.97;;;3.20;;
25950;SDS011;13748;52.240;6.002;2023-02-03T10:19:20;10.33;;;3.30;;
25950;SDS011;13748;52.240;6.002;2023-02-03T10:21:53;16.07;;;3.90;;
25950;SDS011;13748;52.240;6.002;2023-02-03T10:24:29;9.20;;;3.10;;
25950;SDS011;13748;52.240;6.002;2023-02-03T10:27:09;10.43;;;2.93;;
25950;SDS011;13748;52.240;6.002;2023-02-03T10:29:44;11.70;;;3.80;;
25950;SDS011;13748;52.240;6.002;2023-02-03T10:32:19;15.03;;;10.53;;
25950;SDS011;13748;52.240;6.002;2023-02-03T10:34:46;13.20;;;3.90;;
25950;SDS011;13748;52.240;6.002;2023-02-03T10:37:27;7.17;;;3.47;;
25950;SDS011;13748;52.240;6.002;2023-02-03T10:40:13;11.87;;;4.10;;
25950;SDS011;13748;52.240;6.002;2023-02-03T10:42:41;12.80;;;5.03;;
25950;SDS011;13748;52.240;6.002;2023-02-03T10:45:30;6.03;;;2.87;;
25950;SDS011;13748;52.240;6.002;2023-02-03T10:48:02;9.73;;;3.67;;
25950;SDS011;13748;52.240;6.002;2023-02-03T10:50:31;7.93;;;3.10;;
25950;SDS011;13748;52.240;6.002;2023-02-03T10:56:00;7.13;;;2.70;;
25950;SDS011;13748;52.240;6.002;2023-02-03T10:58:49;8.07;;;3.50;;
25950;SDS011;13748;52.240;6.002;2023-02-03T11:01:22;6.50;;;3.53;;
25950;SDS011;13748;52.240;6.002;2023-02-03T11:04:01;12.17;;;3.43;;
25950;SDS011;13748;52.240;6.002;2023-02-03T11:06:33;11.20;;;3.40;;
25950;SDS011;13748;52.240;6.002;2023-02-03T11:09:01;7.63;;;3.00;;
25950;SDS011;13748;52.240;6.002;2023-02-03T11:12:00;5.13;;;2.90;;
25950;SDS011;13748;52.240;6.002;2023-02-03T11:14:36;18.17;;;3.30;;
25950;SDS011;13748;52.240;6.002;2023-02-03T11:17:07;6.70;;;2.77;;
25950;SDS011;13748;52.240;6.002;2023-02-03T11:19:39;7.43;;;4.07;;
25950;SDS011;13748;52.240;6.002;2023-02-03T11:22:10;9.13;;;2.93;;
25950;SDS011;13748;52.240;6.002;2023-02-03T11:24:38;7.20;;;2.70;;
25950;SDS011;13748;52.240;6.002;2023-02-03T11:27:11;11.27;;;3.40;;
25950;SDS011;13748;52.240;6.002;2023-02-03T11:29:44;6.00;;;3.10;;
25950;SDS011;13748;52.240;6.002;2023-02-03T11:32:21;12.33;;;4.13;;
25950;SDS011;13748;52.240;6.002;2023-02-03T11:34:59;8.67;;;3.17;;
25950;SDS011;13748;52.240;6.002;2023-02-03T11:37:36;10.53;;;3.60;;
25950;SDS011;13748;52.240;6.002;2023-02-03T11:42:34;10.07;;;3.73;;
25950;SDS011;13748;52.240;6.002;2023-02-03T11:45:13;11.43;;;3.37;;
25950;SDS011;13748;52.240;6.002;2023-02-03T11:47:50;18.60;;;3.50;;
25950;SDS011;13748;52.240;6.002;2023-02-03T11:56:27;12.87;;;3.70;;
25950;SDS011;13748;52.240;6.002;2023-02-03T12:19:31;16.13;;;3.00;;
25950;SDS011;13748;52.240;6.002;2023-02-03T12:24:57;12.23;;;3.57;;
25950;SDS011;13748;52.240;6.002;2023-02-03T12:27:47;15.23;;;3.30;;
25950;SDS011;13748;52.240;6.002;2023-02-03T12:30:23;17.33;;;3.53;;
25950;SDS011;13748;52.240;6.002;2023-02-03T12:33:02;11.17;;;3.60;;
25950;SDS011;13748;52.240;6.002;2023-02-03T12:38:49;17.67;;;3.33;;
25950;SDS011;13748;52.240;6.002;2023-02-03T12:42:06;12.73;;;3.40;;
25950;SDS011;13748;52.240;6.002;2023-02-03T12:44:20;18.20;;;3.50;;
25950;SDS011;13748;52.240;6.002;2023-02-03T12:46:53;16.67;;;3.47;;
25950;SDS011;13748;52.240;6.002;2023-02-03T12:49:30;14.30;;;3.23;;
25950;SDS011;13748;52.240;6.002;2023-02-03T12:52:09;18.73;;;3.67;;
25950;SDS011;13748;52.240;6.002;2023-02-03T12:57:39;17.43;;;4.77;;
25950;SDS011;13748;52.240;6.002;2023-02-03T13:00:17;18.77;;;4.37;;
25950;SDS011;13748;52.240;6.002;2023-02-03T13:03:07;18.47;;;3.67;;
25950;SDS011;13748;52.240;6.002;2023-02-03T13:08:15;16.73;;;3.37;;
25950;SDS011;13748;52.240;6.002;2023-02-03T13:13:51;23.27;;;4.17;;
25950;SDS011;13748;52.240;6.002;2023-02-03T13:16:29;20.13;;;4.07;;
25950;SDS011;13748;52.240;6.002;2023-02-03T13:19:02;22.10;;;4.00;;
25950;SDS011;13748;52.240;6.002;2023-02-03T13:21:33;18.80;;;3.70;;
25950;SDS011;13748;52.240;6.002;2023-02-03T13:24:01;21.93;;;4.00;;
25950;SDS011;13748;52.240;6.002;2023-02-03T13:26:34;24.90;;;4.87;;
25950;SDS011;13748;52.240;6.002;2023-02-03T13:43:17;16.07;;;3.57;;
25950;SDS011;13748;52.240;6.002;2023-02-03T13:46:02;18.70;;;4.70;;
25950;SDS011;13748;52.240;6.002;2023-02-03T13:48:34;26.77;;;5.53;;
25950;SDS011;13748;52.240;6.002;2023-02-03T13:51:11;23.80;;;4.33;;
25950;SDS011;13748;52.240;6.002;2023-02-03T13:53:42;15.40;;;3.93;;
25950;SDS011;13748;52.240;6.002;2023-02-03T13:56:23;25.97;;;4.47;;
25950;SDS011;13748;52.240;6.002;2023-02-03T13:58:58;28.17;;;4.73;;
25950;SDS011;13748;52.240;6.002;2023-02-03T14:01:27;26.93;;;5.17;;
25950;SDS011;13748;52.240;6.002;2023-02-03T14:03:58;32.10;;;4.67;;
25950;SDS011;13748;52.240;6.002;2023-02-03T14:07:19;21.83;;;4.50;;
25950;SDS011;13748;52.240;6.002;2023-02-03T14:11:50;26.53;;;4.73;;
25950;SDS011;13748;52.240;6.002;2023-02-03T14:16:49;16.83;;;4.37;;
25950;SDS011;13748;52.240;6.002;2023-02-03T14:24:21;30.70;;;4.90;;
25950;SDS011;13748;52.240;6.002;2023-02-03T14:29:30;26.23;;;5.00;;
25950;SDS011;13748;52.240;6.002;2023-02-03T14:32:02;22.57;;;4.63;;
25950;SDS011;13748;52.240;6.002;2023-02-03T14:40:00;24.57;;;5.10;;
25950;SDS011;13748;52.240;6.002;2023-02-03T14:59:47;24.80;;;6.20;;
25950;SDS011;13748;52.240;6.002;2023-02-03T15:02:20;27.03;;;4.63;;
25950;SDS011;13748;52.240;6.002;2023-02-03T15:07:40;17.63;;;5.93;;
25950;SDS011;13748;52.240;6.002;2023-02-03T15:10:15;31.50;;;5.70;;
25950;SDS011;13748;52.240;6.002;2023-02-03T15:12:48;28.20;;;5.97;;
25950;SDS011;13748;52.240;6.002;2023-02-03T15:15:21;27.47;;;5.60;;
25950;SDS011;13748;52.240;6.002;2023-02-03T15:17:54;27.33;;;4.50;;
25950;SDS011;13748;52.240;6.002;2023-02-03T15:20:33;30.50;;;6.23;;
25950;SDS011;13748;52.240;6.002;2023-02-03T15:23:20;28.40;;;5.30;;
25950;SDS011;13748;52.240;6.002;2023-02-03T15:25:55;33.83;;;5.33;;
25950;SDS011;13748;52.240;6.002;2023-02-03T15:28:24;17.90;;;5.47;;
25950;SDS011;13748;52.240;6.002;2023-02-03T15:30:54;22.37;;;5.40;;
25950;SDS011;13748;52.240;6.002;2023-02-03T15:33:26;31.70;;;5.30;;
25950;SDS011;13748;52.240;6.002;2023-02-03T15:35:58;22.23;;;5.07;;
25950;SDS011;13748;52.240;6.002;2023-02-03T15:38:35;27.17;;;4.77;;
25950;SDS011;13748;52.240;6.002;2023-02-03T15:41:07;28.10;;;4.87;;
25950;SDS011;13748;52.240;6.002;2023-02-03T15:43:43;24.37;;;4.67;;
25950;SDS011;13748;52.240;6.002;2023-02-03T15:46:14;30.73;;;5.10;;
25950;SDS011;13748;52.240;6.002;2023-02-03T15:49:01;30.53;;;5.20;;
25950;SDS011;13748;52.240;6.002;2023-02-03T15:51:33;26.93;;;4.90;;
25950;SDS011;13748;52.240;6.002;2023-02-03T15:54:16;31.93;;;4.77;;
25950;SDS011;13748;52.240;6.002;2023-02-03T15:56:51;26.23;;;5.10;;
25950;SDS011;13748;52.240;6.002;2023-02-03T16:02:14;29.23;;;7.33;;
25950;SDS011;13748;52.240;6.002;2023-02-03T16:04:47;26.07;;;5.77;;
25950;SDS011;13748;52.240;6.002;2023-02-03T16:07:25;27.47;;;5.63;;
25950;SDS011;13748;52.240;6.002;2023-02-03T16:09:55;21.23;;;5.57;;
25950;SDS011;13748;52.240;6.002;2023-02-03T16:12:24;25.93;;;5.37;;
25950;SDS011;13748;52.240;6.002;2023-02-03T16:14:58;22.37;;;4.83;;
25950;SDS011;13748;52.240;6.002;2023-02-03T16:17:36;20.93;;;5.57;;
25950;SDS011;13748;52.240;6.002;2023-02-03T16:22:38;26.20;;;4.90;;
25950;SDS011;13748;52.240;6.002;2023-02-03T16:25:20;21.23;;;4.50;;
25950;SDS011;13748;52.240;6.002;2023-02-03T16:27:55;29.13;;;5.17;;
25950;SDS011;13748;52.240;6.002;2023-02-03T16:30:52;23.83;;;4.27;;
25950;SDS011;13748;52.240;6.002;2023-02-03T16:33:43;23.70;;;4.67;;
25950;SDS011;13748;52.240;6.002;2023-02-03T16:36:29;28.07;;;4.80;;
25950;SDS011;13748;52.240;6.002;2023-02-03T16:39:15;29.10;;;7.27;;
25950;SDS011;13748;52.240;6.002;2023-02-03T16:42:05;33.10;;;6.10;;
25950;SDS011;13748;52.240;6.002;2023-02-03T16:44:57;18.33;;;4.87;;
25950;SDS011;13748;52.240;6.002;2023-02-03T16:47:43;26.13;;;4.90;;
25950;SDS011;13748;52.240;6.002;2023-02-03T16:50:30;30.30;;;5.67;;
25950;SDS011;13748;52.240;6.002;2023-02-03T16:53:19;30.00;;;5.60;;
25950;SDS011;13748;52.240;6.002;2023-02-03T16:56:00;30.00;;;5.80;;
25950;SDS011;13748;52.240;6.002;2023-02-03T16:58:30;22.73;;;4.83;;
25950;SDS011;13748;52.240;6.002;2023-02-03T17:00:58;24.27;;;4.77;;
25950;SDS011;13748;52.240;6.002;2023-02-03T17:03:26;33.97;;;6.50;;
25950;SDS011;13748;52.240;6.002;2023-02-03T17:05:54;27.03;;;4.67;;
25950;SDS011;13748;52.240;6.002;2023-02-03T17:08:22;29.13;;;6.10;;
25950;SDS011;13748;52.240;6.002;2023-02-03T17:10:50;23.67;;;6.43;;
25950;SDS011;13748;52.240;6.002;2023-02-03T17:13:19;27.80;;;5.77;;
25950;SDS011;13748;52.240;6.002;2023-02-03T17:15:48;27.30;;;5.73;;